sensor_id;sensor_type;location;lat;lon;timestamp;P1;durP1;ratioP1;P2;durP2;ratioP2
37049;SDS011;22958;51.232;6.826;2023-04-01T00:00:18;6.95;;;1.42;;
37049;SDS011;22958;51.232;6.826;2023-04-01T00:02:45;8.20;;;1.00;;
37049;SDS011;22958;51.232;6.826;2023-04-01T00:05:10;3.40;;;0.90;;
37049;SDS011;22958;51.232;6.826;2023-04-01T00:07:37;7.20;;;1.60;;
37049;SDS011;22958;51.232;6.826;2023-04-01T00:10:03;8.00;;;0.73;;
37049;SDS011;22958;51.232;6.826;2023-04-01T00:12:30;5.88;;;1.08;;
37049;SDS011;22958;51.232;6.826;2023-04-01T00:14:56;6.10;;;0.83;;
37049;SDS011;22958;51.232;6.826;2023-04-01T00:17:21;13.17;;;1.43;;
37049;SDS011;22958;51.232;6.826;2023-04-01T00:19:47;8.23;;;1.38;;
37049;SDS011;22958;51.232;6.826;2023-04-01T00:22:13;8.20;;;1.07;;
37049;SDS011;22958;51.232;6.826;2023-04-01T00:24:38;6.57;;;1.63;;
37049;SDS011;22958;51.232;6.826;2023-04-01T00:27:04;3.07;;;0.90;;
37049;SDS011;22958;51.232;6.826;2023-04-01T00:29:30;2.20;;;0.50;;
37049;SDS011;22958;51.232;6.826;2023-04-01T00:31:56;7.57;;;1.03;;
37049;SDS011;22958;51.232;6.826;2023-04-01T00:34:22;6.83;;;0.60;;
37049;SDS011;22958;51.232;6.826;2023-04-01T00:36:49;4.93;;;0.88;;
37049;SDS011;22958;51.232;6.826;2023-04-01T00:39:17;6.13;;;0.55;;
37049;SDS011;22958;51.232;6.826;2023-04-01T00:41:43;9.85;;;1.45;;
37049;SDS011;22958;51.232;6.826;2023-04-01T00:47:07;3.45;;;0.70;;
37049;SDS011;22958;51.232;6.826;2023-04-01T00:49:35;5.38;;;0.55;;
37049;SDS011;22958;51.232;6.826;2023-04-01T00:52:06;6.20;;;0.68;;
37049;SDS011;22958;51.232;6.826;2023-04-01T00:54:33;3.20;;;0.73;;
37049;SDS011;22958;51.232;6.826;2023-04-01T00:57:02;6.05;;;0.77;;
37049;SDS011;22958;51.232;6.826;2023-04-01T00:59:33;4.80;;;0.80;;
37049;SDS011;22958;51.232;6.826;2023-04-01T01:02:02;4.57;;;0.88;;
37049;SDS011;22958;51.232;6.826;2023-04-01T01:04:28;2.40;;;0.50;;
37049;SDS011;22958;51.232;6.826;2023-04-01T01:12:40;7.10;;;0.70;;
37049;SDS011;22958;51.232;6.826;2023-04-01T01:15:26;4.15;;;0.70;;
37049;SDS011;22958;51.232;6.826;2023-04-01T01:18:03;3.65;;;1.10;;
37049;SDS011;22958;51.232;6.826;2023-04-01T01:20:40;2.35;;;0.43;;
37049;SDS011;22958;51.232;6.826;2023-04-01T01:31:37;6.78;;;0.70;;
37049;SDS011;22958;51.232;6.826;2023-04-01T01:36:53;3.03;;;0.47;;
37049;SDS011;22958;51.232;6.826;2023-04-01T01:39:23;7.38;;;0.63;;
37049;SDS011;22958;51.232;6.826;2023-04-01T01:41:52;2.88;;;0.60;;
37049;SDS011;22958;51.232;6.826;2023-04-01T01:44:20;6.32;;;0.80;;
37049;SDS011;22958;51.232;6.826;2023-04-01T01:46:47;3.75;;;0.80;;
37049;SDS011;22958;51.232;6.826;2023-04-01T01:49:13;4.75;;;0.80;;
37049;SDS011;22958;51.232;6.826;2023-04-01T01:51:41;4.40;;;0.60;;
37049;SDS011;22958;51.232;6.826;2023-04-01T01:56:37;4.18;;;0.75;;
37049;SDS011;22958;51.232;6.826;2023-04-01T01:59:05;5.13;;;0.90;;
37049;SDS011;22958;51.232;6.826;2023-04-01T02:01:36;3.05;;;0.90;;
37049;SDS011;22958;51.232;6.826;2023-04-01T02:04:04;6.82;;;0.98;;
37049;SDS011;22958;51.232;6.826;2023-04-01T02:06:31;6.35;;;0.60;;
37049;SDS011;22958;51.232;6.826;2023-04-01T02:09:00;7.07;;;0.95;;
37049;SDS011;22958;51.232;6.826;2023-04-01T02:11:35;8.35;;;1.40;;
37049;SDS011;22958;51.232;6.826;2023-04-01T02:14:19;4.88;;;0.55;;
37049;SDS011;22958;51.232;6.826;2023-04-01T02:16:55;2.78;;;0.60;;
37049;SDS011;22958;51.232;6.826;2023-04-01T02:19:31;3.63;;;0.60;;
37049;SDS011;22958;51.232;6.826;2023-04-01T02:22:02;10.32;;;0.90;;
37049;SDS011;22958;51.232;6.826;2023-04-01T02:24:30;1.48;;;0.50;;
37049;SDS011;22958;51.232;6.826;2023-04-01T02:26:58;2.92;;;0.60;;
37049;SDS011;22958;51.232;6.826;2023-04-01T02:29:24;1.10;;;0.40;;
37049;SDS011;22958;51.232;6.826;2023-04-01T02:31:50;1.58;;;0.45;;
37049;SDS011;22958;51.232;6.826;2023-04-01T02:34:18;3.85;;;0.60;;
37049;SDS011;22958;51.232;6.826;2023-04-01T02:36:46;3.35;;;0.60;;
37049;SDS011;22958;51.232;6.826;2023-04-01T02:39:14;3.92;;;0.77;;
37049;SDS011;22958;51.232;6.826;2023-04-01T02:41:40;2.17;;;0.83;;
37049;SDS011;22958;51.232;6.826;2023-04-01T02:44:08;7.20;;;1.00;;
37049;SDS011;22958;51.232;6.826;2023-04-01T02:46:35;4.75;;;0.70;;
37049;SDS011;22958;51.232;6.826;2023-04-01T02:49:01;3.30;;;0.70;;
37049;SDS011;22958;51.232;6.826;2023-04-01T02:51:26;4.83;;;0.83;;
37049;SDS011;22958;51.232;6.826;2023-04-01T02:53:52;2.53;;;0.50;;
37049;SDS011;22958;51.232;6.826;2023-04-01T02:56:18;3.90;;;0.80;;
37049;SDS011;22958;51.232;6.826;2023-04-01T03:01:10;6.28;;;0.93;;
37049;SDS011;22958;51.232;6.826;2023-04-01T03:03:36;6.10;;;0.93;;
37049;SDS011;22958;51.232;6.826;2023-04-01T03:06:05;3.60;;;0.60;;
37049;SDS011;22958;51.232;6.826;2023-04-01T03:08:35;5.28;;;0.77;;
37049;SDS011;22958;51.232;6.826;2023-04-01T03:11:01;2.97;;;0.80;;
37049;SDS011;22958;51.232;6.826;2023-04-01T03:13:27;3.20;;;0.50;;
37049;SDS011;22958;51.232;6.826;2023-04-01T03:15:52;1.57;;;0.27;;
37049;SDS011;22958;51.232;6.826;2023-04-01T03:18:18;0.80;;;0.30;;
37049;SDS011;22958;51.232;6.826;2023-04-01T03:20:44;3.00;;;0.50;;
37049;SDS011;22958;51.232;6.826;2023-04-01T03:23:09;6.07;;;0.23;;
37049;SDS011;22958;51.232;6.826;2023-04-01T03:25:35;2.10;;;0.70;;
37049;SDS011;22958;51.232;6.826;2023-04-01T03:28:01;3.60;;;0.57;;
37049;SDS011;22958;51.232;6.826;2023-04-01T03:30:27;2.00;;;0.50;;
37049;SDS011;22958;51.232;6.826;2023-04-01T03:32:54;2.75;;;0.65;;
37049;SDS011;22958;51.232;6.826;2023-04-01T03:35:20;8.33;;;0.80;;
37049;SDS011;22958;51.232;6.826;2023-04-01T03:37:45;5.20;;;0.57;;
37049;SDS011;22958;51.232;6.826;2023-04-01T03:40:11;3.87;;;0.57;;
37049;SDS011;22958;51.232;6.826;2023-04-01T03:42:37;1.47;;;0.40;;
37049;SDS011;22958;51.232;6.826;2023-04-01T03:45:03;4.17;;;0.30;;
37049;SDS011;22958;51.232;6.826;2023-04-01T03:49:55;2.05;;;0.65;;
37049;SDS011;22958;51.232;6.826;2023-04-01T03:52:20;2.77;;;0.30;;
37049;SDS011;22958;51.232;6.826;2023-04-01T03:54:46;2.97;;;0.57;;
37049;SDS011;22958;51.232;6.826;2023-04-01T03:57:11;4.30;;;0.57;;
37049;SDS011;22958;51.232;6.826;2023-04-01T03:59:37;2.00;;;0.30;;
37049;SDS011;22958;51.232;6.826;2023-04-01T04:02:02;0.87;;;0.30;;
37049;SDS011;22958;51.232;6.826;2023-04-01T04:04:28;2.40;;;0.40;;
37049;SDS011;22958;51.232;6.826;2023-04-01T04:06:54;2.47;;;0.68;;
37049;SDS011;22958;51.232;6.826;2023-04-01T04:09:21;4.38;;;0.55;;
37049;SDS011;22958;51.232;6.826;2023-04-01T04:11:46;1.73;;;0.53;;
37049;SDS011;22958;51.232;6.826;2023-04-01T04:14:12;1.77;;;0.47;;
37049;SDS011;22958;51.232;6.826;2023-04-01T04:16:38;5.47;;;0.60;;
37049;SDS011;22958;51.232;6.826;2023-04-01T04:19:03;3.00;;;0.60;;
37049;SDS011;22958;51.232;6.826;2023-04-01T04:21:29;1.95;;;0.30;;
37049;SDS011;22958;51.232;6.826;2023-04-01T04:23:55;3.50;;;0.57;;
37049;SDS011;22958;51.232;6.826;2023-04-01T04:26:20;1.20;;;0.50;;
37049;SDS011;22958;51.232;6.826;2023-04-01T04:28:46;2.73;;;0.60;;
37049;SDS011;22958;51.232;6.826;2023-04-01T04:31:13;6.45;;;0.70;;
37049;SDS011;22958;51.232;6.826;2023-04-01T04:33:44;2.80;;;0.50;;
37049;SDS011;22958;51.232;6.826;2023-04-01T04:36:10;1.80;;;0.60;;
37049;SDS011;22958;51.232;6.826;2023-04-01T04:38:35;4.73;;;0.73;;
37049;SDS011;22958;51.232;6.826;2023-04-01T04:41:01;3.17;;;0.60;;
37049;SDS011;22958;51.232;6.826;2023-04-01T04:43:26;4.37;;;1.03;;
37049;SDS011;22958;51.232;6.826;2023-04-01T04:45:52;8.77;;;1.00;;
37049;SDS011;22958;51.232;6.826;2023-04-01T04:48:17;0.97;;;0.63;;
37049;SDS011;22958;51.232;6.826;2023-04-01T04:50:47;1.83;;;0.90;;
37049;SDS011;22958;51.232;6.826;2023-04-01T04:53:14;2.22;;;1.15;;
37049;SDS011;22958;51.232;6.826;2023-04-01T04:55:47;5.85;;;1.55;;
37049;SDS011;22958;51.232;6.826;2023-04-01T04:58:14;3.53;;;0.90;;
37049;SDS011;22958;51.232;6.826;2023-04-01T05:00:40;2.88;;;0.80;;
37049;SDS011;22958;51.232;6.826;2023-04-01T05:03:06;3.50;;;0.87;;
37049;SDS011;22958;51.232;6.826;2023-04-01T05:05:32;2.30;;;1.00;;
37049;SDS011;22958;51.232;6.826;2023-04-01T05:07:57;3.37;;;0.90;;
37049;SDS011;22958;51.232;6.826;2023-04-01T05:10:23;2.30;;;1.13;;
37049;SDS011;22958;51.232;6.826;2023-04-01T05:12:49;3.23;;;1.20;;
37049;SDS011;22958;51.232;6.826;2023-04-01T05:15:14;2.30;;;1.20;;
37049;SDS011;22958;51.232;6.826;2023-04-01T05:17:40;6.17;;;1.63;;
37049;SDS011;22958;51.232;6.826;2023-04-01T05:20:05;5.13;;;1.27;;
37049;SDS011;22958;51.232;6.826;2023-04-01T05:22:31;2.80;;;1.50;;
37049;SDS011;22958;51.232;6.826;2023-04-01T05:24:57;2.70;;;1.63;;
37049;SDS011;22958;51.232;6.826;2023-04-01T05:27:22;5.93;;;1.37;;
37049;SDS011;22958;51.232;6.826;2023-04-01T05:29:48;6.50;;;1.57;;
37049;SDS011;22958;51.232;6.826;2023-04-01T05:32:14;2.63;;;1.57;;
37049;SDS011;22958;51.232;6.826;2023-04-01T05:34:39;3.53;;;1.92;;
37049;SDS011;22958;51.232;6.826;2023-04-01T05:37:05;7.90;;;1.97;;
37049;SDS011;22958;51.232;6.826;2023-04-01T05:42:01;6.40;;;2.08;;
37049;SDS011;22958;51.232;6.826;2023-04-01T05:44:26;2.63;;;1.73;;
37049;SDS011;22958;51.232;6.826;2023-04-01T05:46:52;6.77;;;2.67;;
37049;SDS011;22958;51.232;6.826;2023-04-01T05:49:17;4.57;;;1.97;;
37049;SDS011;22958;51.232;6.826;2023-04-01T05:51:42;5.70;;;2.67;;
37049;SDS011;22958;51.232;6.826;2023-04-01T05:54:08;6.20;;;2.70;;
37049;SDS011;22958;51.232;6.826;2023-04-01T05:56:34;9.93;;;3.33;;
37049;SDS011;22958;51.232;6.826;2023-04-01T05:58:59;5.33;;;3.00;;
37049;SDS011;22958;51.232;6.826;2023-04-01T06:01:25;5.10;;;2.60;;
37049;SDS011;22958;51.232;6.826;2023-04-01T06:03:50;7.20;;;3.27;;
37049;SDS011;22958;51.232;6.826;2023-04-01T06:06:20;6.70;;;2.93;;
37049;SDS011;22958;51.232;6.826;2023-04-01T06:08:52;7.97;;;3.10;;
37049;SDS011;22958;51.232;6.826;2023-04-01T06:11:29;5.32;;;3.50;;
37049;SDS011;22958;51.232;6.826;2023-04-01T06:20:05;10.18;;;4.03;;
37049;SDS011;22958;51.232;6.826;2023-04-01T06:25:46;10.55;;;4.47;;
37049;SDS011;22958;51.232;6.826;2023-04-01T06:42:13;6.97;;;4.05;;
37049;SDS011;22958;51.232;6.826;2023-04-01T06:44:47;9.73;;;5.68;;
37049;SDS011;22958;51.232;6.826;2023-04-01T06:47:58;8.43;;;4.93;;
37049;SDS011;22958;51.232;6.826;2023-04-01T06:51:23;11.90;;;4.88;;
37049;SDS011;22958;51.232;6.826;2023-04-01T06:54:38;6.80;;;3.60;;
37049;SDS011;22958;51.232;6.826;2023-04-01T06:56:42;8.85;;;4.07;;
37049;SDS011;22958;51.232;6.826;2023-04-01T06:59:12;5.50;;;3.60;;
37049;SDS011;22958;51.232;6.826;2023-04-01T07:01:45;6.32;;;4.22;;
37049;SDS011;22958;51.232;6.826;2023-04-01T07:04:16;11.63;;;3.95;;
37049;SDS011;22958;51.232;6.826;2023-04-01T07:06:48;6.97;;;3.47;;
37049;SDS011;22958;51.232;6.826;2023-04-01T07:09:22;5.72;;;3.53;;
37049;SDS011;22958;51.232;6.826;2023-04-01T07:11:51;7.22;;;3.85;;
37049;SDS011;22958;51.232;6.826;2023-04-01T07:14:24;5.97;;;3.95;;
37049;SDS011;22958;51.232;6.826;2023-04-01T07:16:59;5.20;;;3.30;;
37049;SDS011;22958;51.232;6.826;2023-04-01T07:19:36;8.20;;;3.40;;
37049;SDS011;22958;51.232;6.826;2023-04-01T07:22:26;6.05;;;3.72;;
37049;SDS011;22958;51.232;6.826;2023-04-01T07:24:54;7.40;;;3.60;;
37049;SDS011;22958;51.232;6.826;2023-04-01T07:27:22;7.40;;;3.33;;
37049;SDS011;22958;51.232;6.826;2023-04-01T07:29:48;9.60;;;3.70;;
37049;SDS011;22958;51.232;6.826;2023-04-01T07:35:22;5.32;;;3.58;;
37049;SDS011;22958;51.232;6.826;2023-04-01T07:37:58;7.35;;;3.72;;
37049;SDS011;22958;51.232;6.826;2023-04-01T07:40:48;7.10;;;3.47;;
37049;SDS011;22958;51.232;6.826;2023-04-01T07:49:07;5.32;;;3.60;;
37049;SDS011;22958;51.232;6.826;2023-04-01T07:51:45;5.18;;;3.60;;
37049;SDS011;22958;51.232;6.826;2023-04-01T07:54:47;9.90;;;3.25;;
37049;SDS011;22958;51.232;6.826;2023-04-01T07:59:57;6.80;;;3.65;;
37049;SDS011;22958;51.232;6.826;2023-04-01T08:05:50;6.00;;;3.45;;
37049;SDS011;22958;51.232;6.826;2023-04-01T08:14:18;8.20;;;4.30;;
37049;SDS011;22958;51.232;6.826;2023-04-01T08:19:45;6.72;;;5.03;;
37049;SDS011;22958;51.232;6.826;2023-04-01T08:22:29;7.45;;;4.45;;
37049;SDS011;22958;51.232;6.826;2023-04-01T08:25:15;8.40;;;5.13;;
37049;SDS011;22958;51.232;6.826;2023-04-01T08:27:48;7.07;;;5.55;;
37049;SDS011;22958;51.232;6.826;2023-04-01T08:33:27;6.88;;;4.68;;
37049;SDS011;22958;51.232;6.826;2023-04-01T08:36:57;5.78;;;4.43;;
37049;SDS011;22958;51.232;6.826;2023-04-01T08:39:06;9.88;;;5.18;;
37049;SDS011;22958;51.232;6.826;2023-04-01T08:44:34;9.50;;;6.45;;
37049;SDS011;22958;51.232;6.826;2023-04-01T08:47:30;8.88;;;6.43;;
37049;SDS011;22958;51.232;6.826;2023-04-01T08:53:33;10.18;;;6.07;;
37049;SDS011;22958;51.232;6.826;2023-04-01T08:56:15;10.70;;;7.63;;
37049;SDS011;22958;51.232;6.826;2023-04-01T09:07:22;16.13;;;8.52;;
37049;SDS011;22958;51.232;6.826;2023-04-01T09:15:26;12.93;;;8.65;;
37049;SDS011;22958;51.232;6.826;2023-04-01T09:21:10;11.55;;;8.00;;
37049;SDS011;22958;51.232;6.826;2023-04-01T09:26:42;12.85;;;8.77;;
37049;SDS011;22958;51.232;6.826;2023-04-01T09:29:38;18.20;;;10.68;;
37049;SDS011;22958;51.232;6.826;2023-04-01T09:38:21;19.23;;;12.70;;
37049;SDS011;22958;51.232;6.826;2023-04-01T09:40:57;17.92;;;11.15;;
37049;SDS011;22958;51.232;6.826;2023-04-01T09:43:25;21.98;;;13.85;;
37049;SDS011;22958;51.232;6.826;2023-04-01T09:46:15;25.98;;;15.95;;
37049;SDS011;22958;51.232;6.826;2023-04-01T09:54:36;19.35;;;12.98;;
37049;SDS011;22958;51.232;6.826;2023-04-01T10:09:38;27.63;;;15.93;;
37049;SDS011;22958;51.232;6.826;2023-04-01T10:12:41;27.27;;;15.98;;
37049;SDS011;22958;51.232;6.826;2023-04-01T10:15:56;36.00;;;18.83;;
37049;SDS011;22958;51.232;6.826;2023-04-01T10:21:23;42.70;;;22.67;;
37049;SDS011;22958;51.232;6.826;2023-04-01T10:24:15;42.80;;;24.10;;
37049;SDS011;22958;51.232;6.826;2023-04-01T10:30:35;46.47;;;27.35;;
37049;SDS011;22958;51.232;6.826;2023-04-01T10:36:24;36.13;;;20.95;;
37049;SDS011;22958;51.232;6.826;2023-04-01T10:47:35;34.22;;;19.77;;
37049;SDS011;22958;51.232;6.826;2023-04-01T10:50:16;30.10;;;18.55;;
37049;SDS011;22958;51.232;6.826;2023-04-01T10:56:11;37.08;;;21.42;;
37049;SDS011;22958;51.232;6.826;2023-04-01T10:59:52;36.17;;;20.85;;
37049;SDS011;22958;51.232;6.826;2023-04-01T11:04:52;26.83;;;17.25;;
37049;SDS011;22958;51.232;6.826;2023-04-01T11:07:58;21.30;;;13.68;;
37049;SDS011;22958;51.232;6.826;2023-04-01T11:13:34;21.45;;;13.63;;
37049;SDS011;22958;51.232;6.826;2023-04-01T11:16:38;25.83;;;15.27;;
37049;SDS011;22958;51.232;6.826;2023-04-01T11:22:27;30.65;;;17.83;;
37049;SDS011;22958;51.232;6.826;2023-04-01T11:37:06;27.02;;;15.15;;
37049;SDS011;22958;51.232;6.826;2023-04-01T11:45:40;20.65;;;13.32;;
37049;SDS011;22958;51.232;6.826;2023-04-01T11:53:52;21.55;;;13.55;;
37049;SDS011;22958;51.232;6.826;2023-04-01T11:56:48;20.95;;;12.10;;
37049;SDS011;22958;51.232;6.826;2023-04-01T12:03:00;26.40;;;15.23;;
37049;SDS011;22958;51.232;6.826;2023-04-01T12:05:48;25.52;;;15.13;;
37049;SDS011;22958;51.232;6.826;2023-04-01T12:11:38;18.17;;;12.32;;
37049;SDS011;22958;51.232;6.826;2023-04-01T12:14:15;18.70;;;11.60;;
37049;SDS011;22958;51.232;6.826;2023-04-01T12:19:47;22.17;;;12.82;;
37049;SDS011;22958;51.232;6.826;2023-04-01T12:24:55;22.60;;;13.52;;
37049;SDS011;22958;51.232;6.826;2023-04-01T12:27:43;19.58;;;12.57;;
37049;SDS011;22958;51.232;6.826;2023-04-01T12:30:30;20.40;;;12.73;;
37049;SDS011;22958;51.232;6.826;2023-04-01T12:35:55;15.93;;;11.30;;
37049;SDS011;22958;51.232;6.826;2023-04-01T12:44:51;18.65;;;11.60;;
37049;SDS011;22958;51.232;6.826;2023-04-01T12:47:50;22.13;;;12.55;;
37049;SDS011;22958;51.232;6.826;2023-04-01T13:01:39;15.70;;;11.20;;
37049;SDS011;22958;51.232;6.826;2023-04-01T13:10:50;20.88;;;13.07;;
37049;SDS011;22958;51.232;6.826;2023-04-01T13:22:11;15.18;;;11.13;;
37049;SDS011;22958;51.232;6.826;2023-04-01T13:27:48;14.00;;;9.50;;
37049;SDS011;22958;51.232;6.826;2023-04-01T13:30:26;13.95;;;9.20;;
37049;SDS011;22958;51.232;6.826;2023-04-01T13:33:19;13.60;;;8.90;;
37049;SDS011;22958;51.232;6.826;2023-04-01T13:36:02;12.15;;;8.65;;
37049;SDS011;22958;51.232;6.826;2023-04-01T13:41:26;13.60;;;9.02;;
37049;SDS011;22958;51.232;6.826;2023-04-01T13:44:33;12.27;;;8.80;;
37049;SDS011;22958;51.232;6.826;2023-04-01T13:53:20;13.07;;;9.27;;
37049;SDS011;22958;51.232;6.826;2023-04-01T13:59:19;10.20;;;7.60;;
37049;SDS011;22958;51.232;6.826;2023-04-01T14:02:07;11.43;;;8.15;;
37049;SDS011;22958;51.232;6.826;2023-04-01T14:04:56;13.70;;;7.63;;
37049;SDS011;22958;51.232;6.826;2023-04-01T14:13:05;9.73;;;6.73;;
37049;SDS011;22958;51.232;6.826;2023-04-01T14:15:57;8.25;;;6.30;;
37049;SDS011;22958;51.232;6.826;2023-04-01T14:24:41;8.10;;;5.80;;
37049;SDS011;22958;51.232;6.826;2023-04-01T14:30:03;8.63;;;5.18;;
37049;SDS011;22958;51.232;6.826;2023-04-01T14:32:49;7.28;;;4.90;;
37049;SDS011;22958;51.232;6.826;2023-04-01T14:35:37;6.00;;;4.45;;
37049;SDS011;22958;51.232;6.826;2023-04-01T14:40:54;5.13;;;3.97;;
37049;SDS011;22958;51.232;6.826;2023-04-01T14:46:32;5.28;;;3.70;;
37049;SDS011;22958;51.232;6.826;2023-04-01T14:52:04;5.07;;;3.90;;
37049;SDS011;22958;51.232;6.826;2023-04-01T14:54:36;5.05;;;3.63;;
37049;SDS011;22958;51.232;6.826;2023-04-01T14:59:33;5.53;;;2.92;;
37049;SDS011;22958;51.232;6.826;2023-04-01T15:08:29;6.20;;;4.53;;
37049;SDS011;22958;51.232;6.826;2023-04-01T15:13:31;5.70;;;3.95;;
37049;SDS011;22958;51.232;6.826;2023-04-01T15:18:44;9.65;;;4.93;;
37049;SDS011;22958;51.232;6.826;2023-04-01T15:21:41;5.65;;;4.20;;
37049;SDS011;22958;51.232;6.826;2023-04-01T15:41:49;10.93;;;7.53;;
37049;SDS011;22958;51.232;6.826;2023-04-01T15:44:01;11.27;;;8.18;;
37049;SDS011;22958;51.232;6.826;2023-04-01T15:52:05;11.25;;;7.13;;
37049;SDS011;22958;51.232;6.826;2023-04-01T15:57:38;11.32;;;8.02;;
37049;SDS011;22958;51.232;6.826;2023-04-01T16:00:22;12.27;;;8.10;;
37049;SDS011;22958;51.232;6.826;2023-04-01T16:05:47;11.52;;;8.82;;
37049;SDS011;22958;51.232;6.826;2023-04-01T16:17:28;19.48;;;11.63;;
37049;SDS011;22958;51.232;6.826;2023-04-01T16:19:58;18.48;;;12.35;;
37049;SDS011;22958;51.232;6.826;2023-04-01T16:22:44;19.88;;;11.73;;
37049;SDS011;22958;51.232;6.826;2023-04-01T16:28:07;18.47;;;10.00;;
37049;SDS011;22958;51.232;6.826;2023-04-01T16:39:06;15.15;;;9.27;;
37049;SDS011;22958;51.232;6.826;2023-04-01T16:41:36;12.77;;;8.30;;
37049;SDS011;22958;51.232;6.826;2023-04-01T16:44:23;12.35;;;8.57;;
37049;SDS011;22958;51.232;6.826;2023-04-01T16:46:53;11.38;;;7.88;;
37049;SDS011;22958;51.232;6.826;2023-04-01T16:49:24;10.85;;;7.90;;
37049;SDS011;22958;51.232;6.826;2023-04-01T16:59:35;17.63;;;8.70;;
37049;SDS011;22958;51.232;6.826;2023-04-01T17:02:02;14.10;;;8.63;;
37049;SDS011;22958;51.232;6.826;2023-04-01T17:04:36;15.40;;;9.82;;
37049;SDS011;22958;51.232;6.826;2023-04-01T17:10:02;13.40;;;8.32;;
37049;SDS011;22958;51.232;6.826;2023-04-01T17:12:42;11.30;;;8.45;;
37049;SDS011;22958;51.232;6.826;2023-04-01T17:31:20;13.50;;;9.10;;
37049;SDS011;22958;51.232;6.826;2023-04-01T17:34:05;12.40;;;9.18;;
37049;SDS011;22958;51.232;6.826;2023-04-01T17:36:58;15.63;;;9.55;;
37049;SDS011;22958;51.232;6.826;2023-04-01T17:39:54;12.10;;;8.73;;
37049;SDS011;22958;51.232;6.826;2023-04-01T17:42:25;11.15;;;6.88;;
37049;SDS011;22958;51.232;6.826;2023-04-01T17:45:11;11.82;;;7.68;;
37049;SDS011;22958;51.232;6.826;2023-04-01T17:53:21;13.05;;;8.82;;
37049;SDS011;22958;51.232;6.826;2023-04-01T17:56:16;11.05;;;7.38;;
37049;SDS011;22958;51.232;6.826;2023-04-01T17:59:03;11.30;;;8.18;;
37049;SDS011;22958;51.232;6.826;2023-04-01T18:01:59;21.38;;;10.23;;
37049;SDS011;22958;51.232;6.826;2023-04-01T18:10:04;10.13;;;6.72;;
37049;SDS011;22958;51.232;6.826;2023-04-01T18:18:15;10.65;;;7.45;;
37049;SDS011;22958;51.232;6.826;2023-04-01T18:25:55;9.50;;;6.70;;
37049;SDS011;22958;51.232;6.826;2023-04-01T18:33:32;10.80;;;7.63;;
37049;SDS011;22958;51.232;6.826;2023-04-01T18:36:19;10.57;;;6.60;;
37049;SDS011;22958;51.232;6.826;2023-04-01T18:38:55;11.63;;;7.97;;
37049;SDS011;22958;51.232;6.826;2023-04-01T18:41:31;12.10;;;8.40;;
37049;SDS011;22958;51.232;6.826;2023-04-01T18:47:15;14.30;;;8.52;;
37049;SDS011;22958;51.232;6.826;2023-04-01T18:57:49;12.93;;;8.70;;
37049;SDS011;22958;51.232;6.826;2023-04-01T19:03:02;12.02;;;7.63;;
37049;SDS011;22958;51.232;6.826;2023-04-01T19:05:41;10.35;;;6.88;;
37049;SDS011;22958;51.232;6.826;2023-04-01T19:08:14;8.80;;;6.65;;
37049;SDS011;22958;51.232;6.826;2023-04-01T19:10:55;11.90;;;6.75;;
37049;SDS011;22958;51.232;6.826;2023-04-01T19:13:26;11.88;;;7.28;;
37049;SDS011;22958;51.232;6.826;2023-04-01T19:18:47;11.70;;;8.20;;
37049;SDS011;22958;51.232;6.826;2023-04-01T19:32:32;16.55;;;10.23;;
37049;SDS011;22958;51.232;6.826;2023-04-01T19:37:59;14.45;;;9.52;;
37049;SDS011;22958;51.232;6.826;2023-04-01T19:46:13;22.30;;;13.38;;
37049;SDS011;22958;51.232;6.826;2023-04-01T19:51:53;27.77;;;16.25;;
37049;SDS011;22958;51.232;6.826;2023-04-01T19:57:34;32.60;;;19.23;;
37049;SDS011;22958;51.232;6.826;2023-04-01T20:08:28;28.67;;;16.83;;
37049;SDS011;22958;51.232;6.826;2023-04-01T20:13:35;32.15;;;19.23;;
37049;SDS011;22958;51.232;6.826;2023-04-01T20:16:15;37.35;;;19.92;;
37049;SDS011;22958;51.232;6.826;2023-04-01T20:24:07;44.95;;;23.95;;
37049;SDS011;22958;51.232;6.826;2023-04-01T20:26:50;50.72;;;27.45;;
37049;SDS011;22958;51.232;6.826;2023-04-01T20:32:06;40.72;;;22.85;;
37049;SDS011;22958;51.232;6.826;2023-04-01T20:35:44;52.40;;;29.73;;
37049;SDS011;22958;51.232;6.826;2023-04-01T20:38:18;51.20;;;26.80;;
37049;SDS011;22958;51.232;6.826;2023-04-01T20:41:10;50.85;;;27.38;;
37049;SDS011;22958;51.232;6.826;2023-04-01T20:50:11;37.08;;;17.75;;
37049;SDS011;22958;51.232;6.826;2023-04-01T20:55:29;22.85;;;13.85;;
37049;SDS011;22958;51.232;6.826;2023-04-01T20:58:03;21.23;;;13.55;;
37049;SDS011;22958;51.232;6.826;2023-04-01T21:03:23;18.45;;;9.93;;
37049;SDS011;22958;51.232;6.826;2023-04-01T21:18:10;9.00;;;6.57;;
37049;SDS011;22958;51.232;6.826;2023-04-01T21:20:22;10.85;;;6.60;;
37049;SDS011;22958;51.232;6.826;2023-04-01T21:28:28;9.60;;;7.47;;
37049;SDS011;22958;51.232;6.826;2023-04-01T21:31:27;10.93;;;7.47;;
37049;SDS011;22958;51.232;6.826;2023-04-01T21:39:50;9.40;;;7.03;;
37049;SDS011;22958;51.232;6.826;2023-04-01T21:50:39;6.32;;;4.15;;
37049;SDS011;22958;51.232;6.826;2023-04-01T21:53:28;5.25;;;4.40;;
37049;SDS011;22958;51.232;6.826;2023-04-01T22:12:35;7.15;;;5.35;;
37049;SDS011;22958;51.232;6.826;2023-04-01T22:18:13;8.35;;;6.22;;
37049;SDS011;22958;51.232;6.826;2023-04-01T22:29:06;12.47;;;8.00;;
37049;SDS011;22958;51.232;6.826;2023-04-01T22:31:48;12.00;;;8.35;;
37049;SDS011;22958;51.232;6.826;2023-04-01T22:34:33;11.65;;;7.82;;
37049;SDS011;22958;51.232;6.826;2023-04-01T22:37:09;11.35;;;7.85;;
37049;SDS011;22958;51.232;6.826;2023-04-01T22:39:47;9.82;;;7.45;;
37049;SDS011;22958;51.232;6.826;2023-04-01T22:42:31;10.55;;;7.60;;
37049;SDS011;22958;51.232;6.826;2023-04-01T22:47:54;10.95;;;7.80;;
37049;SDS011;22958;51.232;6.826;2023-04-01T22:50:39;8.57;;;6.30;;
37049;SDS011;22958;51.232;6.826;2023-04-01T22:56:36;9.32;;;6.70;;
37049;SDS011;22958;51.232;6.826;2023-04-01T23:01:51;8.63;;;6.40;;
37049;SDS011;22958;51.232;6.826;2023-04-01T23:04:24;9.50;;;6.57;;
37049;SDS011;22958;51.232;6.826;2023-04-01T23:07:00;11.90;;;7.75;;
37049;SDS011;22958;51.232;6.826;2023-04-01T23:09:33;8.65;;;6.53;;
37049;SDS011;22958;51.232;6.826;2023-04-01T23:12:10;9.02;;;6.78;;
37049;SDS011;22958;51.232;6.826;2023-04-01T23:14:49;8.10;;;5.95;;
37049;SDS011;22958;51.232;6.826;2023-04-01T23:22:31;8.27;;;5.75;;
37049;SDS011;22958;51.232;6.826;2023-04-01T23:27:39;9.18;;;5.88;;
37049;SDS011;22958;51.232;6.826;2023-04-01T23:33:10;7.78;;;5.50;;
37049;SDS011;22958;51.232;6.826;2023-04-01T23:38:21;9.98;;;7.00;;
37049;SDS011;22958;51.232;6.826;2023-04-01T23:40:49;11.07;;;7.63;;
37049;SDS011;22958;51.232;6.826;2023-04-01T23:43:24;12.52;;;7.07;;
37049;SDS011;22958;51.232;6.826;2023-04-01T23:45:53;11.82;;;7.07;;
37049;SDS011;22958;51.232;6.826;2023-04-01T23:48:26;7.97;;;5.78;;
37049;SDS011;22958;51.232;6.826;2023-04-01T23:50:57;8.32;;;6.43;;
37049;SDS011;22958;51.232;6.826;2023-04-01T23:53:24;9.57;;;7.13;;
37049;SDS011;22958;51.232;6.826;2023-04-01T23:55:51;9.68;;;6.43;;
37049;SDS011;22958;51.232;6.826;2023-04-01T23:58:22;7.22;;;5.70;;
